Time;durP1;ratioP1;P1;durP2;ratioP2;P2;SDS_P1;SDS_P2;PMS_P1;PMS_P2;Temp;Humidity;BMP_temperature;BMP_pressure;BME280_temperature;BME280_humidity;BME280_pressure;Samples;Min_cycle;Max_cycle;Signal;HPM_P1;HPM_P2
2022/01/16 00:01:15;;;;;;;44.50;18.00;;;0.70;99.90;;;;;;5054002;28;20214;-72
2022/01/16 00:06:26;;;;;;;47.30;21.87;;;0.70;99.90;;;;;;5056284;28;20288;-72
2022/01/16 00:08:53;;;;;;;43.80;20.13;;;0.70;99.90;;;;;;5055339;28;20202;-71
2022/01/16 00:11:20;;;;;;;44.97;19.37;;;0.60;99.90;;;;;;5055363;28;20722;-72
2022/01/16 00:13:48;;;;;;;44.47;19.77;;;0.70;99.90;;;;;;5055584;28;20757;-72
2022/01/16 00:16:16;;;;;;;42.77;21.43;;;0.70;99.90;;;;;;5056307;28;20213;-71
2022/01/16 00:18:49;;;;;;;43.67;19.97;;;0.70;99.90;;;;;;5055438;28;20214;-71
2022/01/16 00:21:17;;;;;;;46.67;20.83;;;0.70;99.90;;;;;;5042650;28;20296;-71
2022/01/16 00:23:44;;;;;;;46.93;20.20;;;0.70;99.90;;;;;;5054925;28;20210;-72
2022/01/16 00:26:11;;;;;;;50.00;21.97;;;0.70;99.90;;;;;;5054951;28;20228;-71
2022/01/16 00:28:38;;;;;;;46.13;20.40;;;0.80;99.90;;;;;;5054678;28;20248;-72
2022/01/16 00:31:06;;;;;;;48.63;21.80;;;0.80;99.90;;;;;;5056365;28;20202;-72
2022/01/16 00:33:38;;;;;;;44.97;21.43;;;0.70;99.90;;;;;;5056667;28;20232;-71
2022/01/16 00:36:06;;;;;;;46.33;21.77;;;0.70;99.90;;;;;;5056109;28;20220;-72
2022/01/16 00:38:33;;;;;;;45.33;21.27;;;0.70;99.90;;;;;;5055737;28;20297;-72
2022/01/16 00:41:00;;;;;;;42.93;20.17;;;0.70;99.90;;;;;;5055421;28;20337;-72
2022/01/16 00:43:26;;;;;;;40.30;19.93;;;0.70;99.90;;;;;;5055565;28;20216;-71
2022/01/16 00:45:53;;;;;;;41.70;20.73;;;0.60;99.90;;;;;;5055613;28;20753;-72
2022/01/16 00:48:21;;;;;;;48.10;20.40;;;0.60;99.90;;;;;;5054955;28;20202;-73
2022/01/16 00:50:48;;;;;;;40.83;19.63;;;0.70;99.90;;;;;;5055309;28;20204;-72
2022/01/16 00:53:15;;;;;;;44.83;20.57;;;0.60;99.90;;;;;;5054145;28;20221;-73
2022/01/16 00:55:42;;;;;;;43.87;20.67;;;0.60;99.90;;;;;;5055580;28;20208;-72
2022/01/16 00:58:09;;;;;;;38.40;18.23;;;0.70;99.90;;;;;;5055211;28;20229;-71
2022/01/16 01:00:36;;;;;;;40.47;19.43;;;0.70;99.90;;;;;;5055584;28;20236;-73
2022/01/16 01:03:05;;;;;;;34.13;17.80;;;0.70;99.90;;;;;;5055060;28;20208;-72
2022/01/16 01:05:34;;;;;;;35.50;17.20;;;0.70;99.90;;;;;;5054448;28;20675;-72
2022/01/16 01:08:02;;;;;;;34.43;17.50;;;0.60;99.90;;;;;;5054761;28;20585;-71
2022/01/16 01:10:33;;;;;;;33.50;16.73;;;0.60;99.90;;;;;;5040721;28;20314;-71
2022/01/16 01:13:10;;;;;;;35.47;17.30;;;0.60;99.90;;;;;;5055716;28;20214;-72
2022/01/16 01:15:43;;;;;;;36.30;18.53;;;0.60;99.90;;;;;;5055681;28;20228;-72
2022/01/16 01:18:11;;;;;;;37.83;18.07;;;0.50;99.90;;;;;;5055770;28;20198;-72
2022/01/16 01:20:42;;;;;;;36.43;17.80;;;0.50;99.90;;;;;;5055245;28;20668;-72
2022/01/16 01:23:09;;;;;;;35.13;18.43;;;0.50;99.90;;;;;;5052740;28;20256;-72
2022/01/16 01:25:37;;;;;;;36.87;18.73;;;0.40;99.90;;;;;;5055328;28;20206;-71
2022/01/16 01:28:04;;;;;;;35.47;18.03;;;0.40;99.90;;;;;;5054912;28;20292;-72
2022/01/16 01:30:31;;;;;;;41.63;19.63;;;0.50;99.90;;;;;;5055363;28;20284;-72
2022/01/16 01:32:59;;;;;;;39.20;19.10;;;0.50;99.90;;;;;;5056339;28;20566;-73
2022/01/16 01:35:26;;;;;;;42.07;18.73;;;0.50;99.90;;;;;;5055654;28;20237;-72
2022/01/16 01:37:54;;;;;;;35.73;18.20;;;0.50;99.90;;;;;;5055857;28;20201;-72
2022/01/16 01:40:23;;;;;;;37.77;17.87;;;0.40;99.90;;;;;;5054888;28;20289;-73
2022/01/16 01:43:03;;;;;;;38.67;18.17;;;0.50;99.90;;;;;;5053660;28;20208;-71
2022/01/16 01:51:08;;;;;;;34.23;18.60;;;0.50;99.90;;;;;;5054987;28;20200;-72
2022/01/16 01:53:37;;;;;;;39.00;18.83;;;0.40;99.90;;;;;;5053791;28;20225;-72
2022/01/16 01:56:05;;;;;;;38.90;19.93;;;0.40;99.90;;;;;;5054342;28;20709;-72
2022/01/16 01:58:32;;;;;;;37.90;17.83;;;0.40;99.90;;;;;;5054376;28;20297;-71
2022/01/16 02:00:59;;;;;;;39.57;18.93;;;0.50;99.90;;;;;;5054112;28;20225;-72
2022/01/16 02:03:33;;;;;;;36.27;18.73;;;0.40;99.90;;;;;;5054572;28;20208;-72
2022/01/16 02:06:00;;;;;;;41.97;19.63;;;0.40;99.90;;;;;;5053343;28;20201;-73
2022/01/16 02:08:27;;;;;;;37.57;19.17;;;0.40;99.90;;;;;;5053434;28;20289;-74
2022/01/16 02:10:57;;;;;;;34.77;16.67;;;0.40;99.90;;;;;;5053686;28;20241;-71
2022/01/16 02:13:28;;;;;;;35.53;16.67;;;0.40;99.90;;;;;;5052498;28;20732;-73
2022/01/16 02:32:47;;;;;;;28.03;16.00;;;0.10;99.90;;;;;;5035296;28;20182;-73
2022/01/16 02:35:13;;;;;;;27.93;14.80;;;0.00;99.90;;;;;;5055600;28;20198;-72
2022/01/16 02:37:40;;;;;;;30.53;15.30;;;0.00;99.90;;;;;;5057648;28;20194;-72
2022/01/16 02:40:22;;;;;;;28.70;16.13;;;0.10;99.90;;;;;;5056223;28;20222;-72
2022/01/16 02:42:51;;;;;;;31.33;15.03;;;0.00;99.90;;;;;;5054641;28;20212;-72
2022/01/16 02:45:29;;;;;;;25.13;14.50;;;0.10;99.90;;;;;;5054595;28;20202;-73
2022/01/16 02:47:57;;;;;;;34.23;16.47;;;0.10;99.90;;;;;;5057103;28;20269;-73
2022/01/16 02:50:25;;;;;;;25.93;15.67;;;0.10;99.90;;;;;;5056429;28;20204;-72
2022/01/16 02:52:52;;;;;;;29.90;14.80;;;0.10;99.90;;;;;;5056493;28;20237;-72
2022/01/16 02:55:21;;;;;;;30.70;16.13;;;0.10;99.90;;;;;;5055469;28;20260;-72
2022/01/16 02:57:49;;;;;;;32.10;16.33;;;0.10;99.90;;;;;;5055951;28;20225;-72
2022/01/16 03:00:16;;;;;;;27.50;15.10;;;0.20;99.90;;;;;;5054377;28;20232;-73
2022/01/16 03:02:43;;;;;;;31.57;15.77;;;0.20;99.90;;;;;;5054352;28;20210;-72
2022/01/16 03:05:10;;;;;;;34.57;16.27;;;0.20;99.90;;;;;;5055206;28;20285;-72
2022/01/16 03:07:37;;;;;;;32.57;16.53;;;0.20;99.90;;;;;;5054780;28;20289;-72
2022/01/16 03:10:25;;;;;;;31.60;16.17;;;0.20;99.90;;;;;;5054019;28;20202;-72
2022/01/16 03:12:53;;;;;;;30.27;15.33;;;0.20;99.90;;;;;;5053325;28;20198;-73
2022/01/16 03:15:21;;;;;;;31.40;16.30;;;0.20;99.90;;;;;;5054190;28;20293;-73
2022/01/16 03:23:22;;;;;;;41.13;17.63;;;0.20;99.90;;;;;;5044168;28;20397;-72
2022/01/16 03:25:50;;;;;;;36.70;17.37;;;0.20;99.90;;;;;;5052471;28;20256;-72
2022/01/16 03:28:19;;;;;;;36.00;17.97;;;0.10;99.90;;;;;;5053505;28;20210;-73
2022/01/16 03:30:46;;;;;;;39.03;18.87;;;0.10;99.90;;;;;;5054284;28;20209;-72
2022/01/16 03:33:13;;;;;;;32.60;16.07;;;0.20;99.90;;;;;;5047526;28;20640;-73
2022/01/16 03:35:41;;;;;;;41.77;19.37;;;0.10;99.90;;;;;;5047419;28;20233;-72
2022/01/16 03:38:08;;;;;;;42.40;19.27;;;0.00;99.90;;;;;;5054668;28;20210;-72
2022/01/16 03:40:36;;;;;;;37.33;18.77;;;0.00;99.90;;;;;;5053585;28;20595;-72
2022/01/16 03:43:12;;;;;;;34.93;18.43;;;0.00;99.90;;;;;;5054171;28;20206;-72
2022/01/16 03:45:40;;;;;;;38.30;19.53;;;0.00;99.90;;;;;;5053662;28;20237;-72
2022/01/16 03:48:07;;;;;;;39.50;19.00;;;0.00;99.90;;;;;;5053074;28;20703;-72
2022/01/16 03:50:34;;;;;;;44.60;19.97;;;0.00;99.90;;;;;;5053435;28;20197;-72
2022/01/16 03:53:01;;;;;;;42.60;20.63;;;0.00;99.90;;;;;;5050749;28;20202;-72
2022/01/16 03:55:28;;;;;;;52.50;22.27;;;0.00;99.90;;;;;;5052431;28;20212;-73
2022/01/16 03:57:55;;;;;;;41.23;20.40;;;0.10;99.90;;;;;;5053737;28;20745;-72
2022/01/16 04:00:22;;;;;;;48.37;21.60;;;0.10;99.90;;;;;;5053230;28;20226;-73
2022/01/16 04:02:50;;;;;;;42.67;20.43;;;0.10;99.90;;;;;;5053876;28;20212;-72
2022/01/16 04:05:17;;;;;;;40.53;20.77;;;0.10;99.90;;;;;;5053877;28;20513;-71
2022/01/16 04:07:44;;;;;;;43.30;21.07;;;0.10;99.90;;;;;;5053236;28;20206;-73
2022/01/16 04:10:11;;;;;;;45.37;20.70;;;0.10;99.90;;;;;;5053089;28;20741;-72
2022/01/16 04:12:39;;;;;;;40.87;20.03;;;0.10;99.90;;;;;;5052437;28;20309;-72
2022/01/16 04:17:59;;;;;;;37.40;19.13;;;0.20;99.90;;;;;;5038553;28;20206;-72
2022/01/16 04:20:26;;;;;;;46.17;22.03;;;0.20;99.90;;;;;;5047855;28;20222;-73
2022/01/16 04:22:53;;;;;;;47.20;22.17;;;0.20;99.90;;;;;;5053286;28;20212;-72
2022/01/16 04:25:20;;;;;;;41.77;20.97;;;0.20;99.90;;;;;;5052832;28;20205;-74
2022/01/16 04:27:47;;;;;;;48.50;21.83;;;0.20;99.90;;;;;;5052821;28;20202;-72
2022/01/16 04:30:15;;;;;;;43.17;20.50;;;0.10;99.90;;;;;;5053738;28;20202;-72
2022/01/16 04:32:42;;;;;;;40.33;20.17;;;0.20;99.90;;;;;;5052141;28;20206;-72
2022/01/16 04:35:10;;;;;;;46.27;20.17;;;0.20;99.90;;;;;;5052900;28;20577;-72
2022/01/16 04:37:38;;;;;;;40.13;19.77;;;0.20;99.90;;;;;;5053169;28;20210;-72
2022/01/16 04:40:06;;;;;;;41.47;20.00;;;0.10;99.90;;;;;;5052203;28;20216;-72
2022/01/16 04:45:17;;;;;;;41.53;20.53;;;0.00;99.90;;;;;;5041216;28;20676;-72
2022/01/16 04:47:44;;;;;;;42.77;19.63;;;0.00;99.90;;;;;;5052422;28;20241;-72
2022/01/16 04:50:13;;;;;;;40.27;20.00;;;-0.10;99.90;;;;;;5052433;28;20229;-72
2022/01/16 04:52:42;;;;;;;37.43;19.07;;;-0.10;99.90;;;;;;5053189;28;20217;-72
2022/01/16 04:55:10;;;;;;;42.23;21.17;;;-0.10;99.90;;;;;;5053258;28;20202;-72
2022/01/16 04:57:37;;;;;;;37.30;19.97;;;-0.10;99.90;;;;;;5053580;28;20228;-72
2022/01/16 05:00:07;;;;;;;44.43;20.67;;;0.00;99.90;;;;;;5053182;28;20206;-72
2022/01/16 05:02:34;;;;;;;48.43;22.37;;;0.00;99.90;;;;;;5052631;28;20206;-72
2022/01/16 05:05:01;;;;;;;42.67;20.03;;;0.00;99.90;;;;;;5053154;28;20209;-72
2022/01/16 05:07:29;;;;;;;37.47;19.93;;;0.00;99.90;;;;;;5052811;28;20299;-72
2022/01/16 05:09:56;;;;;;;44.20;20.47;;;0.00;99.90;;;;;;5053859;28;20206;-71
2022/01/16 05:12:32;;;;;;;41.90;19.57;;;0.00;99.90;;;;;;5042716;28;20325;-71
2022/01/16 05:17:46;;;;;;;43.90;21.53;;;0.00;99.90;;;;;;5051340;28;20197;-72
2022/01/16 05:20:13;;;;;;;37.30;20.70;;;0.10;99.90;;;;;;5051801;28;20602;-72
2022/01/16 05:22:42;;;;;;;43.43;22.27;;;0.10;99.90;;;;;;5052654;28;20222;-72
2022/01/16 05:25:14;;;;;;;42.93;21.00;;;0.10;99.90;;;;;;5049283;28;20210;-72
2022/01/16 05:27:41;;;;;;;40.63;20.53;;;0.10;99.90;;;;;;5050667;28;20213;-72
2022/01/16 05:30:08;;;;;;;44.43;21.20;;;0.00;99.90;;;;;;5053142;28;20651;-73
2022/01/16 05:32:35;;;;;;;45.73;22.07;;;0.00;99.90;;;;;;5052378;28;20213;-72
2022/01/16 05:35:03;;;;;;;49.37;22.00;;;0.00;99.90;;;;;;5052121;28;20206;-71
2022/01/16 05:37:30;;;;;;;44.30;22.00;;;0.00;99.90;;;;;;5051559;28;20214;-73
2022/01/16 05:39:58;;;;;;;45.97;21.47;;;0.00;99.90;;;;;;5051406;28;20202;-71
2022/01/16 05:42:25;;;;;;;47.00;22.23;;;0.00;99.90;;;;;;5051572;28;20252;-72
2022/01/16 05:44:51;;;;;;;38.63;21.10;;;0.10;99.90;;;;;;5050739;28;20289;-71
2022/01/16 05:47:18;;;;;;;46.33;21.27;;;0.00;99.90;;;;;;5051358;28;20300;-71
2022/01/16 05:49:45;;;;;;;44.37;21.43;;;0.00;99.90;;;;;;5051338;28;20214;-72
2022/01/16 05:52:13;;;;;;;42.00;21.37;;;0.00;99.90;;;;;;5051777;28;20674;-71
2022/01/16 05:54:40;;;;;;;46.37;21.10;;;0.00;99.90;;;;;;5050942;28;20210;-71
2022/01/16 05:57:08;;;;;;;45.97;21.73;;;0.00;99.90;;;;;;5050515;28;20228;-71
2022/01/16 05:59:37;;;;;;;46.77;22.73;;;0.00;99.90;;;;;;5051637;28;20209;-72
2022/01/16 06:02:04;;;;;;;50.50;23.33;;;0.00;99.90;;;;;;5051065;28;20229;-71
2022/01/16 06:04:31;;;;;;;46.00;21.30;;;-0.10;99.90;;;;;;5051387;28;20202;-71
2022/01/16 06:06:58;;;;;;;46.60;21.97;;;-0.10;99.90;;;;;;5051315;28;20198;-71
2022/01/16 06:09:26;;;;;;;44.23;21.13;;;-0.10;99.90;;;;;;5051587;28;20202;-72
2022/01/16 06:11:54;;;;;;;50.43;22.77;;;0.00;99.90;;;;;;5050926;28;20237;-72
2022/01/16 06:14:23;;;;;;;42.83;22.60;;;-0.10;99.90;;;;;;5050541;28;20287;-71
2022/01/16 06:16:50;;;;;;;39.60;21.50;;;-0.10;99.90;;;;;;5049876;28;20681;-71
2022/01/16 06:19:17;;;;;;;43.33;21.63;;;-0.10;99.90;;;;;;5051123;28;20210;-71
2022/01/16 06:21:44;;;;;;;46.50;22.37;;;-0.10;99.90;;;;;;5051029;28;20225;-71
2022/01/16 06:24:12;;;;;;;45.57;21.87;;;-0.10;99.90;;;;;;5047270;28;20218;-71
2022/01/16 06:26:39;;;;;;;47.90;22.87;;;-0.20;99.90;;;;;;5050525;28;20218;-72
2022/01/16 06:29:05;;;;;;;47.23;21.77;;;-0.20;99.90;;;;;;5045308;28;20209;-72
2022/01/16 06:31:34;;;;;;;50.43;22.07;;;-0.20;99.90;;;;;;5050898;28;20245;-71
2022/01/16 06:34:02;;;;;;;40.30;20.53;;;-0.30;99.90;;;;;;5051781;28;20844;-72
2022/01/16 06:36:29;;;;;;;46.63;22.43;;;-0.30;99.90;;;;;;5041168;28;20579;-72
2022/01/16 06:38:56;;;;;;;43.17;20.37;;;-0.20;99.90;;;;;;5051367;28;20328;-71
2022/01/16 06:41:23;;;;;;;36.97;19.43;;;-0.30;99.90;;;;;;5044334;28;20559;-70
2022/01/16 06:43:50;;;;;;;45.97;21.97;;;-0.40;99.90;;;;;;5049972;28;20305;-72
2022/01/16 06:46:17;;;;;;;40.27;21.70;;;-0.30;99.90;;;;;;5050570;28;20217;-71
2022/01/16 06:48:45;;;;;;;38.80;20.80;;;-0.30;99.90;;;;;;5050946;28;20657;-72
2022/01/16 06:51:12;;;;;;;39.93;20.30;;;-0.30;99.90;;;;;;5051062;28;20210;-71
2022/01/16 06:53:39;;;;;;;48.10;22.83;;;-0.30;99.90;;;;;;5046054;28;20213;-71
2022/01/16 06:56:06;;;;;;;40.60;22.00;;;-0.30;99.90;;;;;;5051274;28;20206;-72
2022/01/16 06:58:35;;;;;;;44.27;21.20;;;-0.30;99.90;;;;;;5050973;28;20309;-71
2022/01/16 07:01:01;;;;;;;44.40;21.87;;;-0.30;99.90;;;;;;5051552;28;20403;-71
2022/01/16 07:03:28;;;;;;;39.77;20.43;;;-0.30;99.90;;;;;;5054224;28;20206;-71
2022/01/16 07:05:57;;;;;;;45.17;21.17;;;-0.30;99.90;;;;;;5054358;28;20216;-72
2022/01/16 07:08:26;;;;;;;43.53;22.23;;;-0.20;99.90;;;;;;5054053;28;20201;-72
2022/01/16 07:10:54;;;;;;;38.87;20.67;;;-0.20;99.90;;;;;;5052924;28;20226;-71
2022/01/16 07:13:21;;;;;;;35.10;19.40;;;-0.20;99.90;;;;;;5053981;28;20209;-70
2022/01/16 07:15:48;;;;;;;34.03;18.53;;;-0.10;99.90;;;;;;5052923;28;20835;-72
2022/01/16 07:18:15;;;;;;;38.63;18.47;;;-0.10;99.90;;;;;;5053449;28;20221;-72
2022/01/16 07:20:43;;;;;;;34.40;17.47;;;-0.10;99.90;;;;;;5053630;28;20202;-72
2022/01/16 07:23:12;;;;;;;39.47;18.00;;;0.00;99.90;;;;;;5054255;28;20301;-73
2022/01/16 07:25:39;;;;;;;32.10;16.07;;;0.00;99.90;;;;;;5054279;28;20689;-72
2022/01/16 07:28:06;;;;;;;31.53;15.53;;;0.10;99.90;;;;;;5053700;28;20204;-72
2022/01/16 07:30:33;;;;;;;27.50;15.83;;;0.10;99.90;;;;;;5049481;28;20585;-71
2022/01/16 07:33:00;;;;;;;28.43;15.63;;;0.10;99.90;;;;;;5053816;28;20508;-72
2022/01/16 07:35:27;;;;;;;31.53;15.60;;;0.10;99.90;;;;;;5053331;28;20210;-73
2022/01/16 07:37:54;;;;;;;30.63;15.60;;;0.20;99.90;;;;;;5052956;28;20208;-73
2022/01/16 07:40:22;;;;;;;31.20;15.80;;;0.20;99.90;;;;;;5053559;28;20213;-72
2022/01/16 07:42:50;;;;;;;32.47;14.83;;;0.20;99.90;;;;;;5053047;28;20333;-72
2022/01/16 07:45:17;;;;;;;29.20;14.53;;;0.20;99.90;;;;;;5053879;28;20202;-73
2022/01/16 07:47:44;;;;;;;26.93;14.47;;;0.20;99.90;;;;;;5051827;28;20210;-71
2022/01/16 07:50:12;;;;;;;26.53;14.33;;;0.20;99.90;;;;;;5046202;28;20567;-74
2022/01/16 07:52:39;;;;;;;30.97;14.80;;;0.20;99.90;;;;;;5053355;28;20204;-73
2022/01/16 07:55:09;;;;;;;31.13;15.17;;;0.20;99.90;;;;;;5047551;28;20212;-73
2022/01/16 07:57:37;;;;;;;28.87;15.03;;;0.20;99.90;;;;;;5054184;28;20226;-72
2022/01/16 08:00:06;;;;;;;26.50;14.53;;;0.30;99.90;;;;;;5052097;28;20210;-73
2022/01/16 08:02:33;;;;;;;28.03;13.50;;;0.30;99.90;;;;;;5052581;28;20225;-72
2022/01/16 08:04:59;;;;;;;28.00;14.40;;;0.30;99.90;;;;;;5053615;28;20397;-72
2022/01/16 08:07:26;;;;;;;34.13;14.30;;;0.30;99.90;;;;;;5056069;28;20205;-72
2022/01/16 08:09:53;;;;;;;32.80;14.60;;;0.30;99.90;;;;;;5052567;28;20210;-70
2022/01/16 08:12:20;;;;;;;26.00;14.17;;;0.30;99.90;;;;;;5051934;28;20286;-72
2022/01/16 08:14:48;;;;;;;30.27;13.77;;;0.30;99.90;;;;;;5053527;28;20711;-72
2022/01/16 08:17:15;;;;;;;29.20;14.27;;;0.40;99.90;;;;;;5054319;28;20240;-72
2022/01/16 08:19:42;;;;;;;31.67;14.60;;;0.40;99.90;;;;;;5054318;28;20273;-73
2022/01/16 08:22:10;;;;;;;29.83;15.93;;;0.40;99.90;;;;;;5053931;28;20214;-71
2022/01/16 08:24:38;;;;;;;34.95;19.20;;;0.40;99.90;;;;;;5049653;28;20995;-70
2022/01/16 08:27:05;;;;;;;27.20;15.13;;;0.40;99.90;;;;;;5046281;28;20452;-71
2022/01/16 08:29:32;;;;;;;28.90;14.07;;;0.50;99.90;;;;;;5053698;28;20241;-72
2022/01/16 08:32:00;;;;;;;35.77;14.20;;;0.50;99.90;;;;;;5054432;28;20216;-73
2022/01/16 08:34:27;;;;;;;28.27;14.37;;;0.50;99.90;;;;;;5053582;28;20210;-73
2022/01/16 08:36:54;;;;;;;32.10;14.43;;;0.60;99.90;;;;;;5048783;28;20247;-72
2022/01/16 08:39:21;;;;;;;32.80;13.60;;;0.60;99.90;;;;;;5049354;28;20202;-71
2022/01/16 08:41:48;;;;;;;25.37;12.67;;;0.60;99.90;;;;;;5049525;28;20325;-72
2022/01/16 08:44:14;;;;;;;28.43;13.63;;;0.60;99.90;;;;;;5051028;28;20312;-71
2022/01/16 08:46:41;;;;;;;28.47;13.83;;;0.60;99.90;;;;;;5052772;28;20212;-69
2022/01/16 08:49:10;;;;;;;26.80;13.10;;;0.70;99.90;;;;;;5051865;28;20210;-69
2022/01/16 08:51:37;;;;;;;31.63;14.03;;;0.70;99.90;;;;;;5050437;28;20293;-70
2022/01/16 08:54:04;;;;;;;23.13;12.13;;;0.70;99.90;;;;;;5052998;28;20525;-73
2022/01/16 08:56:31;;;;;;;28.73;12.30;;;0.80;99.90;;;;;;5053250;28;20687;-70
2022/01/16 08:58:58;;;;;;;27.00;12.07;;;0.80;99.90;;;;;;5046078;28;20212;-70
2022/01/16 09:01:25;;;;;;;26.63;13.23;;;0.80;99.90;;;;;;5046989;28;20210;-72
2022/01/16 09:03:52;;;;;;;26.37;13.37;;;0.80;99.90;;;;;;5050780;28;20241;-69
2022/01/16 09:06:21;;;;;;;31.20;13.93;;;0.80;99.90;;;;;;5052486;28;20210;-68
2022/01/16 09:08:48;;;;;;;26.87;12.83;;;0.80;99.90;;;;;;5052300;28;20210;-70
2022/01/16 09:11:15;;;;;;;32.80;13.83;;;0.90;99.90;;;;;;5050634;28;20269;-70
2022/01/16 09:13:42;;;;;;;28.47;12.37;;;0.90;99.90;;;;;;5046673;28;20198;-67
2022/01/16 09:16:09;;;;;;;28.17;13.13;;;1.00;99.90;;;;;;5050336;28;20202;-69
2022/01/16 09:18:36;;;;;;;26.43;11.50;;;1.00;99.90;;;;;;5049708;28;20201;-70
2022/01/16 09:21:03;;;;;;;26.00;12.33;;;1.00;99.90;;;;;;5049310;28;20283;-69
2022/01/16 09:23:31;;;;;;;27.03;12.97;;;1.00;99.90;;;;;;5047373;28;20233;-69
2022/01/16 09:25:58;;;;;;;24.07;11.73;;;1.00;99.90;;;;;;5047464;28;20201;-71
2022/01/16 09:28:25;;;;;;;31.40;14.33;;;1.10;99.90;;;;;;5048987;28;20668;-71
2022/01/16 09:30:52;;;;;;;22.00;11.93;;;1.10;99.90;;;;;;5041282;28;20700;-68
2022/01/16 09:33:19;;;;;;;26.47;12.67;;;1.10;99.90;;;;;;5050197;28;20212;-71
2022/01/16 09:35:46;;;;;;;29.63;13.00;;;1.20;99.90;;;;;;5050051;28;20220;-72
2022/01/16 09:38:13;;;;;;;25.77;12.60;;;1.30;99.90;;;;;;5050430;28;20297;-73
2022/01/16 09:40:45;;;;;;;24.60;12.73;;;1.30;99.90;;;;;;5047614;28;20290;-72
2022/01/16 09:43:12;;;;;;;30.87;13.60;;;1.30;99.90;;;;;;5051873;28;20230;-71
2022/01/16 09:45:39;;;;;;;23.07;12.43;;;1.30;99.90;;;;;;5048487;28;20201;-71
2022/01/16 09:48:06;;;;;;;26.47;13.57;;;1.40;99.90;;;;;;5050276;28;20207;-72
2022/01/16 09:50:34;;;;;;;32.07;14.63;;;1.40;99.90;;;;;;5051510;28;20298;-72
2022/01/16 09:53:01;;;;;;;23.97;13.37;;;1.40;99.90;;;;;;5050591;28;20292;-71
2022/01/16 09:55:28;;;;;;;23.23;13.20;;;1.40;99.90;;;;;;5048858;28;20209;-70
2022/01/16 09:57:58;;;;;;;30.07;13.57;;;1.50;99.90;;;;;;5050507;28;20725;-70
2022/01/16 10:00:25;;;;;;;23.27;12.90;;;1.50;99.90;;;;;;5050794;28;20655;-72
2022/01/16 10:02:53;;;;;;;22.40;13.33;;;1.50;99.90;;;;;;5048120;28;20226;-70
2022/01/16 10:05:31;;;;;;;24.90;13.07;;;1.50;99.90;;;;;;5050075;28;20571;-71
2022/01/16 10:07:59;;;;;;;28.97;13.53;;;1.60;99.90;;;;;;5049871;28;20206;-73
2022/01/16 10:10:28;;;;;;;28.63;13.27;;;1.60;99.90;;;;;;5049867;28;20458;-71
2022/01/16 10:13:05;;;;;;;23.73;12.83;;;1.60;99.90;;;;;;5049828;28;20198;-72
2022/01/16 10:15:32;;;;;;;26.20;14.70;;;1.60;99.90;;;;;;5049772;28;20209;-67
2022/01/16 10:18:02;;;;;;;35.10;14.60;;;1.60;99.90;;;;;;5049173;28;20209;-65
2022/01/16 10:20:30;;;;;;;29.20;13.90;;;1.70;99.90;;;;;;5049519;28;20212;-66
2022/01/16 10:22:59;;;;;;;24.90;13.63;;;1.70;99.90;;;;;;5048716;28;20320;-67
2022/01/16 10:25:41;;;;;;;28.60;14.10;;;1.80;99.90;;;;;;5049166;28;20911;-68
2022/01/16 10:28:15;;;;;;;29.27;14.10;;;1.80;99.90;;;;;;5046347;28;20209;-66
2022/01/16 10:30:44;;;;;;;29.40;14.80;;;1.90;99.90;;;;;;5049069;28;20261;-66
2022/01/16 10:33:13;;;;;;;31.27;13.63;;;2.00;99.90;;;;;;5048864;28;20206;-67
2022/01/16 10:35:41;;;;;;;29.20;14.00;;;2.00;99.90;;;;;;5049114;28;20608;-65
2022/01/16 10:38:11;;;;;;;33.43;14.63;;;2.10;99.90;;;;;;5053767;28;20580;-68
2022/01/16 10:40:40;;;;;;;26.53;14.23;;;2.10;99.90;;;;;;5042741;28;20202;-67
2022/01/16 10:43:13;;;;;;;32.88;18.40;;;2.10;99.90;;;;;;5051286;28;20466;-66
2022/01/16 10:45:43;;;;;;;32.77;15.40;;;2.10;99.90;;;;;;5053607;28;20245;-67
2022/01/16 10:48:11;;;;;;;33.73;14.47;;;2.10;99.90;;;;;;5052932;28;20328;-65
2022/01/16 10:50:40;;;;;;;36.73;14.43;;;2.20;99.90;;;;;;5049117;28;20209;-66
2022/01/16 10:53:08;;;;;;;30.00;14.33;;;2.20;99.90;;;;;;5051138;28;20644;-66
2022/01/16 10:55:38;;;;;;;32.63;14.13;;;2.20;99.90;;;;;;5047159;28;20651;-66
2022/01/16 10:58:09;;;;;;;26.57;14.10;;;2.20;99.90;;;;;;5054404;28;20230;-66
2022/01/16 11:00:37;;;;;;;31.77;15.13;;;2.30;99.90;;;;;;5052902;28;20206;-66
2022/01/16 11:03:07;;;;;;;32.07;14.90;;;2.40;99.90;;;;;;5051434;28;20221;-67
2022/01/16 11:05:36;;;;;;;26.10;13.80;;;2.30;99.90;;;;;;5052754;28;20202;-74
2022/01/16 11:08:07;;;;;;;27.77;14.20;;;2.40;99.90;;;;;;5053765;28;20298;-73
2022/01/16 11:10:35;;;;;;;27.57;13.53;;;2.40;99.90;;;;;;5050132;28;20217;-73
2022/01/16 11:13:05;;;;;;;29.23;14.77;;;2.30;99.90;;;;;;5054116;28;20573;-72
2022/01/16 11:15:33;;;;;;;28.33;14.47;;;2.30;99.90;;;;;;5054267;28;20209;-73
2022/01/16 11:18:01;;;;;;;24.00;13.53;;;2.30;99.90;;;;;;5054143;28;20635;-73
2022/01/16 11:20:33;;;;;;;26.00;13.20;;;2.30;99.90;;;;;;5053364;28;20285;-74
2022/01/16 11:23:05;;;;;;;28.77;14.63;;;2.40;99.90;;;;;;5052683;28;20689;-74
2022/01/16 11:25:36;;;;;;;30.50;15.07;;;2.30;99.90;;;;;;5053537;28;20646;-75
2022/01/16 11:28:06;;;;;;;28.23;13.57;;;2.40;99.90;;;;;;5054187;28;20686;-73
2022/01/16 11:30:36;;;;;;;27.00;14.57;;;2.40;99.90;;;;;;5054160;28;20210;-75
2022/01/16 11:33:05;;;;;;;27.50;14.57;;;2.40;99.90;;;;;;5054009;28;20205;-76
2022/01/16 11:35:35;;;;;;;26.53;14.87;;;2.40;99.90;;;;;;5049974;28;20256;-74
2022/01/16 11:38:03;;;;;;;26.47;13.10;;;2.50;99.90;;;;;;5054217;28;20208;-77
2022/01/16 11:40:42;;;;;;;29.60;14.27;;;2.60;99.90;;;;;;5053956;28;20284;-72
2022/01/16 11:43:36;;;;;;;27.77;13.57;;;2.60;99.90;;;;;;5054517;28;20304;-75
2022/01/16 11:46:09;;;;;;;31.17;13.83;;;2.70;99.90;;;;;;5048950;28;20209;-74
2022/01/16 11:48:39;;;;;;;26.27;13.57;;;2.60;99.90;;;;;;5052813;28;20619;-75
2022/01/16 11:51:28;;;;;;;28.73;14.70;;;2.60;99.90;;;;;;5047903;28;20999;-75
2022/01/16 11:54:06;;;;;;;30.03;15.63;;;2.60;99.90;;;;;;5054399;28;20438;-77
2022/01/16 11:56:54;;;;;;;28.30;14.83;;;2.60;99.90;;;;;;5055178;28;20229;-77
2022/01/16 11:59:22;;;;;;;33.33;15.23;;;2.60;99.90;;;;;;5042119;28;20252;-74
2022/01/16 12:01:53;;;;;;;33.03;15.40;;;2.60;99.90;;;;;;5053666;28;20206;-74
2022/01/16 12:04:56;;;;;;;34.47;16.30;;;2.60;99.90;;;;;;5053027;28;20221;-75
2022/01/16 12:07:47;;;;;;;33.27;15.67;;;2.60;99.90;;;;;;5053700;28;20288;-75
2022/01/16 12:10:54;;;;;;;30.80;15.27;;;2.60;99.90;;;;;;5047515;28;20194;-74
2022/01/16 12:13:44;;;;;;;31.20;15.60;;;2.60;99.90;;;;;;5044797;28;20232;-74
2022/01/16 12:16:54;;;;;;;27.03;14.43;;;2.60;99.90;;;;;;5045873;28;20214;-75
2022/01/16 12:19:48;;;;;;;34.00;14.53;;;2.70;99.90;;;;;;5034698;28;20260;-74
2022/01/16 12:22:43;;;;;;;32.30;15.57;;;2.70;99.90;;;;;;5049034;28;20678;-72
2022/01/16 12:25:18;;;;;;;26.47;15.33;;;2.70;99.90;;;;;;5044823;28;20205;-72
2022/01/16 12:27:50;;;;;;;27.57;14.97;;;2.70;99.90;;;;;;5054020;28;20332;-77
2022/01/16 12:30:31;;;;;;;28.57;14.80;;;2.70;99.90;;;;;;5054362;28;20229;-76
2022/01/16 12:33:08;;;;;;;32.63;16.17;;;2.70;99.90;;;;;;5051137;28;20232;-75
2022/01/16 12:36:13;;;;;;;31.73;16.43;;;2.70;99.90;;;;;;5047792;28;20263;-75
2022/01/16 12:38:59;;;;;;;27.87;14.83;;;2.70;99.90;;;;;;5042450;28;20225;-74
2022/01/16 12:41:30;;;;;;;30.27;15.80;;;2.70;99.90;;;;;;5046925;28;20213;-74
2022/01/16 12:44:00;;;;;;;37.00;15.73;;;2.70;99.90;;;;;;5047887;28;20221;-75
2022/01/16 12:46:33;;;;;;;30.73;15.60;;;2.60;99.90;;;;;;5044310;28;20193;-73
2022/01/16 12:49:03;;;;;;;36.37;17.57;;;2.60;99.90;;;;;;5050352;28;20205;-69
2022/01/16 12:51:32;;;;;;;37.13;17.83;;;2.50;99.90;;;;;;5048189;28;20206;-74
2022/01/16 12:54:03;;;;;;;34.20;16.73;;;2.50;99.90;;;;;;5050687;28;20201;-74
2022/01/16 12:56:35;;;;;;;43.13;20.13;;;2.50;99.90;;;;;;5050542;28;20256;-75
2022/01/16 12:59:17;;;;;;;34.37;18.17;;;2.50;99.90;;;;;;5050154;28;20553;-74
2022/01/16 13:01:47;;;;;;;36.43;18.50;;;2.50;99.90;;;;;;5052380;28;20237;-74
2022/01/16 13:04:36;;;;;;;31.97;16.83;;;2.50;99.90;;;;;;5046014;28;20899;-75
2022/01/16 13:07:09;;;;;;;31.87;16.03;;;2.40;99.90;;;;;;5045288;28;20284;-74
2022/01/16 13:09:36;;;;;;;35.23;16.23;;;2.40;99.90;;;;;;5043318;28;20631;-74
2022/01/16 13:12:07;;;;;;;34.90;16.93;;;2.40;99.90;;;;;;5049062;28;20233;-74
2022/01/16 13:14:36;;;;;;;30.47;15.70;;;2.40;99.90;;;;;;5047822;28;20201;-74
2022/01/16 13:17:08;;;;;;;23.30;15.07;;;2.50;99.90;;;;;;5045239;28;20565;-75
2022/01/16 13:19:41;;;;;;;30.50;14.70;;;2.40;99.90;;;;;;5050455;28;20251;-76
2022/01/16 13:22:12;;;;;;;25.90;14.63;;;2.40;99.90;;;;;;5050394;28;20777;-72
2022/01/16 13:24:43;;;;;;;27.43;15.37;;;2.30;99.90;;;;;;5051355;28;20576;-75
2022/01/16 13:27:14;;;;;;;31.30;15.10;;;2.30;99.90;;;;;;5049165;28;20212;-76